Accueil
METAR-TAF:

METAR-TAF

Aéroports :

Bagdad, Irak

Aéroport international de Bagdad

latitude: 33-15-45N, longitude: 44-14-04E, altitude: 35 m

Observation

Le bulletin a été fait il y a 33 minutes, à 00:00 UTC
Vent 5 kt de sud/sud-ouest, variant entre sud/sud-est et ouest/sud-ouest
Température 8°C
Humidité 57%
Pression 1016 hPa
Visibilité: 7000 m

METAR: ORBI 140000Z 21005KT 150V250 7000 NSC 08/M00 Q1016 NOSIG

Heure: 03:33 (00:33 UTC)

Prévision

Le bulletin a été fait il y a 8 heures et 33 minutes, à 16:00 UTC
Prévision valable du 13 à 18 UTC au 14 à 18 UTC
Vent 8 kt de ouest
Visibilité: 8000 m
Nuages épars à une hauteur de 3000 ft
Nuages fragmentés à une hauteur de 10000 ft

TAF: ORBI 131600Z 1318/1418 26008KT 8000 SCT030 BKN100

Observations et prévisions météorologiques de plus de 4000 aéroports (messages METAR et TAF).

Les stations disponibles sont représentées par des disques jaunes et rouges sur la carte.

Passer la souris dessus pour voir le nom de la station.

Cliquer dessus pour voir les observations et prévisions météorologiques.

Pour changer de carte: cliquez sur les boutons verts avec une croix noire pour zoomer, sur le bouton vert avec un tiret pour effectuer un zoom arrière, ou sur les flèches vertes pour les cartes adjacentes.


METAR-TAF: